sensor_id;sensor_type;location;lat;lon;timestamp;temperature;humidity
57753;DHT22;43583;53.132;6.574;2022-09-24T00:02:00;13.40;99.90
57753;DHT22;43583;53.132;6.574;2022-09-24T00:04:26;13.40;99.90
57753;DHT22;43583;53.132;6.574;2022-09-24T00:06:52;13.30;99.90
57753;DHT22;43583;53.132;6.574;2022-09-24T00:09:20;13.40;99.90
57753;DHT22;43583;53.132;6.574;2022-09-24T00:11:47;13.40;99.90
57753;DHT22;43583;53.132;6.574;2022-09-24T00:14:15;13.40;99.90
57753;DHT22;43583;53.132;6.574;2022-09-24T00:16:42;13.40;99.90
57753;DHT22;43583;53.132;6.574;2022-09-24T00:19:09;13.40;99.90
57753;DHT22;43583;53.132;6.574;2022-09-24T00:21:36;13.40;99.90
57753;DHT22;43583;53.132;6.574;2022-09-24T00:24:05;13.40;99.90
57753;DHT22;43583;53.132;6.574;2022-09-24T00:26:31;13.40;99.90
57753;DHT22;43583;53.132;6.574;2022-09-24T00:29:19;13.40;99.90
57753;DHT22;43583;53.132;6.574;2022-09-24T00:31:46;13.40;99.90
57753;DHT22;43583;53.132;6.574;2022-09-24T00:34:12;13.40;99.90
57753;DHT22;43583;53.132;6.574;2022-09-24T00:36:38;13.40;99.90
57753;DHT22;43583;53.132;6.574;2022-09-24T00:39:04;13.40;99.90
57753;DHT22;43583;53.132;6.574;2022-09-24T00:41:32;13.40;99.90
57753;DHT22;43583;53.132;6.574;2022-09-24T00:43:58;13.40;99.90
57753;DHT22;43583;53.132;6.574;2022-09-24T00:46:39;13.40;99.90
57753;DHT22;43583;53.132;6.574;2022-09-24T00:49:14;13.40;99.90
57753;DHT22;43583;53.132;6.574;2022-09-24T00:51:41;13.40;99.90
57753;DHT22;43583;53.132;6.574;2022-09-24T00:54:12;13.40;99.90
57753;DHT22;43583;53.132;6.574;2022-09-24T00:56:40;13.40;99.90
57753;DHT22;43583;53.132;6.574;2022-09-24T00:59:09;13.40;99.90
57753;DHT22;43583;53.132;6.574;2022-09-24T01:01:36;13.40;99.90
57753;DHT22;43583;53.132;6.574;2022-09-24T01:04:03;13.40;99.90
57753;DHT22;43583;53.132;6.574;2022-09-24T01:06:30;13.40;99.90
57753;DHT22;43583;53.132;6.574;2022-09-24T01:08:57;13.40;99.90
57753;DHT22;43583;53.132;6.574;2022-09-24T01:25:11;13.40;99.90
57753;DHT22;43583;53.132;6.574;2022-09-24T01:27:57;13.40;99.90
57753;DHT22;43583;53.132;6.574;2022-09-24T01:30:27;13.40;99.90
57753;DHT22;43583;53.132;6.574;2022-09-24T01:33:06;13.40;99.90
57753;DHT22;43583;53.132;6.574;2022-09-24T01:35:44;13.40;99.90
57753;DHT22;43583;53.132;6.574;2022-09-24T01:38:18;13.40;99.90
57753;DHT22;43583;53.132;6.574;2022-09-24T01:40:45;13.40;99.90
57753;DHT22;43583;53.132;6.574;2022-09-24T01:43:12;13.40;99.90
57753;DHT22;43583;53.132;6.574;2022-09-24T01:45:39;13.40;99.90
57753;DHT22;43583;53.132;6.574;2022-09-24T01:48:05;13.40;99.90
57753;DHT22;43583;53.132;6.574;2022-09-24T01:50:41;13.50;99.90
57753;DHT22;43583;53.132;6.574;2022-09-24T01:53:22;13.50;99.90
57753;DHT22;43583;53.132;6.574;2022-09-24T01:55:57;13.50;99.90
57753;DHT22;43583;53.132;6.574;2022-09-24T01:58:33;13.50;99.90
57753;DHT22;43583;53.132;6.574;2022-09-24T02:01:09;13.50;99.90
57753;DHT22;43583;53.132;6.574;2022-09-24T02:03:41;13.50;99.90
57753;DHT22;43583;53.132;6.574;2022-09-24T02:06:18;13.50;99.90
57753;DHT22;43583;53.132;6.574;2022-09-24T02:08:46;13.50;99.90
57753;DHT22;43583;53.132;6.574;2022-09-24T02:11:16;13.50;99.90
57753;DHT22;43583;53.132;6.574;2022-09-24T02:13:46;13.50;99.90
57753;DHT22;43583;53.132;6.574;2022-09-24T02:16:16;13.50;99.90
57753;DHT22;43583;53.132;6.574;2022-09-24T02:18:46;13.50;99.90
57753;DHT22;43583;53.132;6.574;2022-09-24T02:21:15;13.50;99.90
57753;DHT22;43583;53.132;6.574;2022-09-24T02:23:47;13.50;99.90
57753;DHT22;43583;53.132;6.574;2022-09-24T02:26:15;13.50;99.90
57753;DHT22;43583;53.132;6.574;2022-09-24T02:28:40;13.60;99.90
57753;DHT22;43583;53.132;6.574;2022-09-24T02:31:16;13.60;99.90
57753;DHT22;43583;53.132;6.574;2022-09-24T02:33:45;13.50;99.90
57753;DHT22;43583;53.132;6.574;2022-09-24T02:36:31;13.60;99.90
57753;DHT22;43583;53.132;6.574;2022-09-24T02:38:57;13.60;99.90
57753;DHT22;43583;53.132;6.574;2022-09-24T02:41:24;13.60;99.90
57753;DHT22;43583;53.132;6.574;2022-09-24T02:43:51;13.60;99.90
57753;DHT22;43583;53.132;6.574;2022-09-24T02:46:16;13.60;99.90
57753;DHT22;43583;53.132;6.574;2022-09-24T02:48:42;13.60;99.90
57753;DHT22;43583;53.132;6.574;2022-09-24T02:51:08;13.60;99.90
57753;DHT22;43583;53.132;6.574;2022-09-24T02:53:33;13.60;99.90
57753;DHT22;43583;53.132;6.574;2022-09-24T02:55:59;13.60;99.90
57753;DHT22;43583;53.132;6.574;2022-09-24T02:58:26;13.60;99.90
57753;DHT22;43583;53.132;6.574;2022-09-24T03:00:52;13.60;99.90
57753;DHT22;43583;53.132;6.574;2022-09-24T03:03:20;13.60;99.90
57753;DHT22;43583;53.132;6.574;2022-09-24T03:05:47;13.60;99.90
57753;DHT22;43583;53.132;6.574;2022-09-24T03:08:13;13.60;99.90
57753;DHT22;43583;53.132;6.574;2022-09-24T03:10:38;13.60;99.90
57753;DHT22;43583;53.132;6.574;2022-09-24T03:13:04;13.60;99.90
57753;DHT22;43583;53.132;6.574;2022-09-24T03:15:29;13.60;99.90
57753;DHT22;43583;53.132;6.574;2022-09-24T03:17:55;13.60;99.90
57753;DHT22;43583;53.132;6.574;2022-09-24T03:20:21;13.60;99.90
57753;DHT22;43583;53.132;6.574;2022-09-24T03:22:50;13.60;99.90
57753;DHT22;43583;53.132;6.574;2022-09-24T03:25:17;13.60;99.90
57753;DHT22;43583;53.132;6.574;2022-09-24T03:27:42;13.60;99.90
57753;DHT22;43583;53.132;6.574;2022-09-24T03:30:08;13.60;99.90
57753;DHT22;43583;53.132;6.574;2022-09-24T03:32:53;13.60;99.90
57753;DHT22;43583;53.132;6.574;2022-09-24T03:35:18;13.60;99.90
57753;DHT22;43583;53.132;6.574;2022-09-24T03:37:45;13.60;99.90
57753;DHT22;43583;53.132;6.574;2022-09-24T03:40:10;13.60;99.90
57753;DHT22;43583;53.132;6.574;2022-09-24T03:42:36;13.60;99.90
57753;DHT22;43583;53.132;6.574;2022-09-24T03:45:02;13.60;99.90
57753;DHT22;43583;53.132;6.574;2022-09-24T03:47:28;13.60;99.90
57753;DHT22;43583;53.132;6.574;2022-09-24T03:49:56;13.60;99.90
57753;DHT22;43583;53.132;6.574;2022-09-24T03:52:22;13.60;99.90
57753;DHT22;43583;53.132;6.574;2022-09-24T03:54:48;13.60;99.90
57753;DHT22;43583;53.132;6.574;2022-09-24T03:57:14;13.60;99.90
57753;DHT22;43583;53.132;6.574;2022-09-24T03:59:40;13.60;99.90
57753;DHT22;43583;53.132;6.574;2022-09-24T04:02:07;13.60;99.90
57753;DHT22;43583;53.132;6.574;2022-09-24T04:04:33;13.60;99.90
57753;DHT22;43583;53.132;6.574;2022-09-24T04:06:58;13.60;99.90
57753;DHT22;43583;53.132;6.574;2022-09-24T04:09:24;13.70;99.90
57753;DHT22;43583;53.132;6.574;2022-09-24T04:11:50;13.60;99.90
57753;DHT22;43583;53.132;6.574;2022-09-24T04:14:18;13.60;99.90
57753;DHT22;43583;53.132;6.574;2022-09-24T04:16:43;13.60;99.90
57753;DHT22;43583;53.132;6.574;2022-09-24T04:19:13;13.60;99.90
57753;DHT22;43583;53.132;6.574;2022-09-24T04:21:43;13.60;99.90
57753;DHT22;43583;53.132;6.574;2022-09-24T04:24:10;13.60;99.90
57753;DHT22;43583;53.132;6.574;2022-09-24T04:26:35;13.60;99.90
57753;DHT22;43583;53.132;6.574;2022-09-24T04:29:01;13.60;99.90
57753;DHT22;43583;53.132;6.574;2022-09-24T04:31:27;13.60;99.90
57753;DHT22;43583;53.132;6.574;2022-09-24T04:33:53;13.60;99.90
57753;DHT22;43583;53.132;6.574;2022-09-24T04:36:19;13.60;99.90
57753;DHT22;43583;53.132;6.574;2022-09-24T04:38:45;13.70;99.90
57753;DHT22;43583;53.132;6.574;2022-09-24T04:41:12;13.60;99.90
57753;DHT22;43583;53.132;6.574;2022-09-24T04:43:38;13.60;99.90
57753;DHT22;43583;53.132;6.574;2022-09-24T04:46:04;13.70;99.90
57753;DHT22;43583;53.132;6.574;2022-09-24T04:48:30;13.60;99.90
57753;DHT22;43583;53.132;6.574;2022-09-24T04:50:56;13.60;99.90
57753;DHT22;43583;53.132;6.574;2022-09-24T04:53:22;13.60;99.90
57753;DHT22;43583;53.132;6.574;2022-09-24T04:55:48;13.70;99.90
57753;DHT22;43583;53.132;6.574;2022-09-24T04:58:14;13.60;99.90
57753;DHT22;43583;53.132;6.574;2022-09-24T05:00:40;13.70;99.90
57753;DHT22;43583;53.132;6.574;2022-09-24T05:03:07;13.70;99.90
57753;DHT22;43583;53.132;6.574;2022-09-24T05:05:33;13.60;99.90
57753;DHT22;43583;53.132;6.574;2022-09-24T05:08:00;13.70;99.90
57753;DHT22;43583;53.132;6.574;2022-09-24T05:10:27;13.60;99.90
57753;DHT22;43583;53.132;6.574;2022-09-24T05:12:53;13.70;99.90
57753;DHT22;43583;53.132;6.574;2022-09-24T05:15:20;13.70;99.90
57753;DHT22;43583;53.132;6.574;2022-09-24T05:17:46;13.70;99.90
57753;DHT22;43583;53.132;6.574;2022-09-24T05:20:12;13.70;99.90
57753;DHT22;43583;53.132;6.574;2022-09-24T05:22:43;13.70;99.90
57753;DHT22;43583;53.132;6.574;2022-09-24T05:25:10;13.70;99.90
57753;DHT22;43583;53.132;6.574;2022-09-24T05:27:36;13.70;99.90
57753;DHT22;43583;53.132;6.574;2022-09-24T05:30:02;13.70;99.90
57753;DHT22;43583;53.132;6.574;2022-09-24T05:32:28;13.70;99.90
57753;DHT22;43583;53.132;6.574;2022-09-24T05:34:53;13.70;99.90
57753;DHT22;43583;53.132;6.574;2022-09-24T05:37:19;13.60;99.90
57753;DHT22;43583;53.132;6.574;2022-09-24T05:39:45;13.60;99.90
57753;DHT22;43583;53.132;6.574;2022-09-24T05:42:11;13.60;99.90
57753;DHT22;43583;53.132;6.574;2022-09-24T05:44:40;13.60;99.90
57753;DHT22;43583;53.132;6.574;2022-09-24T05:47:08;13.60;99.90
57753;DHT22;43583;53.132;6.574;2022-09-24T05:49:33;13.60;99.90
57753;DHT22;43583;53.132;6.574;2022-09-24T05:51:59;13.50;99.90
57753;DHT22;43583;53.132;6.574;2022-09-24T05:54:26;13.50;99.90
57753;DHT22;43583;53.132;6.574;2022-09-24T05:56:51;13.50;99.90
57753;DHT22;43583;53.132;6.574;2022-09-24T05:59:17;13.50;99.90
57753;DHT22;43583;53.132;6.574;2022-09-24T06:01:43;13.50;99.90
57753;DHT22;43583;53.132;6.574;2022-09-24T06:04:10;13.50;99.90
57753;DHT22;43583;53.132;6.574;2022-09-24T06:06:38;13.50;99.90
57753;DHT22;43583;53.132;6.574;2022-09-24T06:09:03;13.50;99.90
57753;DHT22;43583;53.132;6.574;2022-09-24T06:11:30;13.50;99.90
57753;DHT22;43583;53.132;6.574;2022-09-24T06:14:02;13.60;99.90
57753;DHT22;43583;53.132;6.574;2022-09-24T06:16:30;13.60;99.90
57753;DHT22;43583;53.132;6.574;2022-09-24T06:18:56;13.60;99.90
57753;DHT22;43583;53.132;6.574;2022-09-24T06:21:21;13.70;99.90
57753;DHT22;43583;53.132;6.574;2022-09-24T06:23:47;13.70;99.90
57753;DHT22;43583;53.132;6.574;2022-09-24T06:26:13;13.70;99.90
57753;DHT22;43583;53.132;6.574;2022-09-24T06:28:39;13.80;99.90
57753;DHT22;43583;53.132;6.574;2022-09-24T06:31:06;13.80;99.90
57753;DHT22;43583;53.132;6.574;2022-09-24T06:33:32;13.80;99.90
57753;DHT22;43583;53.132;6.574;2022-09-24T06:35:59;13.90;99.90
57753;DHT22;43583;53.132;6.574;2022-09-24T06:38:25;14.00;99.90
57753;DHT22;43583;53.132;6.574;2022-09-24T06:40:51;14.00;99.90
57753;DHT22;43583;53.132;6.574;2022-09-24T06:43:17;14.10;99.90
57753;DHT22;43583;53.132;6.574;2022-09-24T06:45:43;14.10;99.90
57753;DHT22;43583;53.132;6.574;2022-09-24T06:48:11;14.10;99.90
57753;DHT22;43583;53.132;6.574;2022-09-24T06:50:42;14.20;99.90
57753;DHT22;43583;53.132;6.574;2022-09-24T06:53:09;14.20;99.90
57753;DHT22;43583;53.132;6.574;2022-09-24T06:55:35;14.30;99.90
57753;DHT22;43583;53.132;6.574;2022-09-24T06:58:12;14.40;99.90
57753;DHT22;43583;53.132;6.574;2022-09-24T07:00:38;14.40;99.90
57753;DHT22;43583;53.132;6.574;2022-09-24T07:03:05;14.40;99.90
57753;DHT22;43583;53.132;6.574;2022-09-24T07:05:34;14.40;99.90
57753;DHT22;43583;53.132;6.574;2022-09-24T07:08:00;14.40;99.90
57753;DHT22;43583;53.132;6.574;2022-09-24T07:10:26;14.30;99.90
57753;DHT22;43583;53.132;6.574;2022-09-24T07:12:52;14.30;99.90
57753;DHT22;43583;53.132;6.574;2022-09-24T07:15:18;14.30;99.90
57753;DHT22;43583;53.132;6.574;2022-09-24T07:17:43;14.30;99.90
57753;DHT22;43583;53.132;6.574;2022-09-24T07:20:09;14.30;99.90
57753;DHT22;43583;53.132;6.574;2022-09-24T07:22:39;14.30;99.90
57753;DHT22;43583;53.132;6.574;2022-09-24T07:25:09;14.30;99.90
57753;DHT22;43583;53.132;6.574;2022-09-24T07:27:35;14.40;99.90
57753;DHT22;43583;53.132;6.574;2022-09-24T07:30:00;14.40;99.90
57753;DHT22;43583;53.132;6.574;2022-09-24T07:32:26;14.40;99.90
57753;DHT22;43583;53.132;6.574;2022-09-24T07:34:52;14.40;99.90
57753;DHT22;43583;53.132;6.574;2022-09-24T07:37:18;14.40;99.90
57753;DHT22;43583;53.132;6.574;2022-09-24T07:39:44;14.40;99.90
57753;DHT22;43583;53.132;6.574;2022-09-24T07:42:10;14.40;99.90
57753;DHT22;43583;53.132;6.574;2022-09-24T07:44:36;14.40;99.90
57753;DHT22;43583;53.132;6.574;2022-09-24T07:47:02;14.40;99.90
57753;DHT22;43583;53.132;6.574;2022-09-24T07:49:28;14.40;99.90
57753;DHT22;43583;53.132;6.574;2022-09-24T07:51:57;14.40;99.90
57753;DHT22;43583;53.132;6.574;2022-09-24T07:54:22;14.40;99.90
57753;DHT22;43583;53.132;6.574;2022-09-24T07:56:48;14.40;99.90
57753;DHT22;43583;53.132;6.574;2022-09-24T07:59:14;14.40;99.90
57753;DHT22;43583;53.132;6.574;2022-09-24T08:01:39;14.40;99.90
57753;DHT22;43583;53.132;6.574;2022-09-24T08:04:05;14.30;99.90
57753;DHT22;43583;53.132;6.574;2022-09-24T08:06:36;14.40;99.90
57753;DHT22;43583;53.132;6.574;2022-09-24T08:09:04;14.30;99.90
57753;DHT22;43583;53.132;6.574;2022-09-24T08:11:37;14.30;99.90
57753;DHT22;43583;53.132;6.574;2022-09-24T08:14:08;14.30;99.90
57753;DHT22;43583;53.132;6.574;2022-09-24T08:16:40;14.20;99.90
57753;DHT22;43583;53.132;6.574;2022-09-24T08:19:05;14.30;99.90
57753;DHT22;43583;53.132;6.574;2022-09-24T08:21:37;14.30;99.90
57753;DHT22;43583;53.132;6.574;2022-09-24T08:24:03;14.30;99.90
57753;DHT22;43583;53.132;6.574;2022-09-24T08:26:29;14.40;99.90
57753;DHT22;43583;53.132;6.574;2022-09-24T08:28:54;14.50;99.90
57753;DHT22;43583;53.132;6.574;2022-09-24T08:31:20;14.50;99.90
57753;DHT22;43583;53.132;6.574;2022-09-24T08:33:46;14.60;99.90
57753;DHT22;43583;53.132;6.574;2022-09-24T08:36:15;14.60;99.90
57753;DHT22;43583;53.132;6.574;2022-09-24T08:38:41;14.70;99.90
57753;DHT22;43583;53.132;6.574;2022-09-24T08:46:23;14.70;99.90
57753;DHT22;43583;53.132;6.574;2022-09-24T08:49:12;14.70;99.90
57753;DHT22;43583;53.132;6.574;2022-09-24T08:54:52;14.70;99.90
57753;DHT22;43583;53.132;6.574;2022-09-24T08:57:19;14.70;99.90
57753;DHT22;43583;53.132;6.574;2022-09-24T08:59:50;14.80;99.90
57753;DHT22;43583;53.132;6.574;2022-09-24T09:02:52;14.80;99.90
57753;DHT22;43583;53.132;6.574;2022-09-24T09:05:43;14.80;99.90
57753;DHT22;43583;53.132;6.574;2022-09-24T09:08:50;14.70;99.90
57753;DHT22;43583;53.132;6.574;2022-09-24T09:11:20;14.80;99.90
57753;DHT22;43583;53.132;6.574;2022-09-24T09:13:52;14.80;99.90
57753;DHT22;43583;53.132;6.574;2022-09-24T09:16:25;14.70;99.90
57753;DHT22;43583;53.132;6.574;2022-09-24T09:18:57;14.70;99.90
57753;DHT22;43583;53.132;6.574;2022-09-24T09:21:39;14.70;99.90
57753;DHT22;43583;53.132;6.574;2022-09-24T09:24:26;14.80;99.90
57753;DHT22;43583;53.132;6.574;2022-09-24T09:26:56;14.90;99.90
57753;DHT22;43583;53.132;6.574;2022-09-24T09:29:23;14.90;99.90
57753;DHT22;43583;53.132;6.574;2022-09-24T09:32:04;15.00;99.90
57753;DHT22;43583;53.132;6.574;2022-09-24T09:34:59;15.00;99.90
57753;DHT22;43583;53.132;6.574;2022-09-24T09:38:02;15.10;99.90
57753;DHT22;43583;53.132;6.574;2022-09-24T09:43:12;15.20;99.90
57753;DHT22;43583;53.132;6.574;2022-09-24T09:48:38;15.20;99.90
57753;DHT22;43583;53.132;6.574;2022-09-24T09:51:12;15.20;99.90
57753;DHT22;43583;53.132;6.574;2022-09-24T09:53:56;15.10;99.90
57753;DHT22;43583;53.132;6.574;2022-09-24T09:56:29;15.10;99.90
57753;DHT22;43583;53.132;6.574;2022-09-24T09:59:18;15.00;99.90
57753;DHT22;43583;53.132;6.574;2022-09-24T10:01:48;14.90;99.90
57753;DHT22;43583;53.132;6.574;2022-09-24T10:04:33;14.90;99.90
57753;DHT22;43583;53.132;6.574;2022-09-24T10:09:30;14.90;99.90
57753;DHT22;43583;53.132;6.574;2022-09-24T10:12:17;15.00;99.90
57753;DHT22;43583;53.132;6.574;2022-09-24T10:14:59;15.00;99.90
57753;DHT22;43583;53.132;6.574;2022-09-24T10:17:36;15.10;99.90
57753;DHT22;43583;53.132;6.574;2022-09-24T10:20:08;15.20;99.90
57753;DHT22;43583;53.132;6.574;2022-09-24T10:22:36;15.30;99.90
57753;DHT22;43583;53.132;6.574;2022-09-24T10:25:03;15.30;99.90
57753;DHT22;43583;53.132;6.574;2022-09-24T10:27:34;15.30;99.90
57753;DHT22;43583;53.132;6.574;2022-09-24T10:30:03;15.40;99.90
57753;DHT22;43583;53.132;6.574;2022-09-24T10:32:59;15.40;99.90
57753;DHT22;43583;53.132;6.574;2022-09-24T10:35:32;15.50;99.90
57753;DHT22;43583;53.132;6.574;2022-09-24T10:38:01;15.50;99.90
57753;DHT22;43583;53.132;6.574;2022-09-24T10:40:38;15.50;99.90
57753;DHT22;43583;53.132;6.574;2022-09-24T10:43:05;15.50;99.90
57753;DHT22;43583;53.132;6.574;2022-09-24T10:45:50;15.50;99.90
57753;DHT22;43583;53.132;6.574;2022-09-24T10:48:25;15.50;99.90
57753;DHT22;43583;53.132;6.574;2022-09-24T10:51:26;15.60;99.90
57753;DHT22;43583;53.132;6.574;2022-09-24T10:56:42;15.70;99.90
57753;DHT22;43583;53.132;6.574;2022-09-24T10:59:21;15.60;99.90
57753;DHT22;43583;53.132;6.574;2022-09-24T11:10:19;15.70;99.90
57753;DHT22;43583;53.132;6.574;2022-09-24T11:16:05;15.80;99.90
57753;DHT22;43583;53.132;6.574;2022-09-24T11:18:51;15.80;99.90
57753;DHT22;43583;53.132;6.574;2022-09-24T11:32:52;15.60;99.90
57753;DHT22;43583;53.132;6.574;2022-09-24T11:35:44;15.50;99.90
57753;DHT22;43583;53.132;6.574;2022-09-24T11:38:18;15.40;99.90
57753;DHT22;43583;53.132;6.574;2022-09-24T11:41:10;15.30;99.90
57753;DHT22;43583;53.132;6.574;2022-09-24T11:43:51;15.20;99.90
57753;DHT22;43583;53.132;6.574;2022-09-24T11:46:43;15.10;99.90
57753;DHT22;43583;53.132;6.574;2022-09-24T11:49:36;15.10;99.90
57753;DHT22;43583;53.132;6.574;2022-09-24T11:52:21;15.00;99.90
57753;DHT22;43583;53.132;6.574;2022-09-24T11:58:13;14.90;99.90
57753;DHT22;43583;53.132;6.574;2022-09-24T12:00:48;14.90;99.90
57753;DHT22;43583;53.132;6.574;2022-09-24T12:03:21;14.80;99.90
57753;DHT22;43583;53.132;6.574;2022-09-24T12:05:55;14.80;99.90
57753;DHT22;43583;53.132;6.574;2022-09-24T12:08:31;14.80;99.90
57753;DHT22;43583;53.132;6.574;2022-09-24T12:11:17;14.70;99.90
57753;DHT22;43583;53.132;6.574;2022-09-24T12:13:49;14.70;99.90
57753;DHT22;43583;53.132;6.574;2022-09-24T12:16:21;14.60;99.90
57753;DHT22;43583;53.132;6.574;2022-09-24T12:21:29;14.60;99.90
57753;DHT22;43583;53.132;6.574;2022-09-24T12:24:01;14.60;99.90
57753;DHT22;43583;53.132;6.574;2022-09-24T12:26:28;14.60;99.90
57753;DHT22;43583;53.132;6.574;2022-09-24T12:29:15;14.60;99.90
57753;DHT22;43583;53.132;6.574;2022-09-24T12:32:15;14.70;99.90
57753;DHT22;43583;53.132;6.574;2022-09-24T12:35:25;14.70;99.90
57753;DHT22;43583;53.132;6.574;2022-09-24T12:38:04;14.70;99.90
57753;DHT22;43583;53.132;6.574;2022-09-24T12:40:54;14.80;99.90
57753;DHT22;43583;53.132;6.574;2022-09-24T12:43:28;14.80;99.90
57753;DHT22;43583;53.132;6.574;2022-09-24T12:46:02;14.80;99.90
57753;DHT22;43583;53.132;6.574;2022-09-24T12:48:31;14.70;99.90
57753;DHT22;43583;53.132;6.574;2022-09-24T12:51:02;14.70;99.90
57753;DHT22;43583;53.132;6.574;2022-09-24T12:53:33;14.70;99.90
57753;DHT22;43583;53.132;6.574;2022-09-24T12:56:00;14.70;99.90
57753;DHT22;43583;53.132;6.574;2022-09-24T12:58:41;14.70;99.90
57753;DHT22;43583;53.132;6.574;2022-09-24T13:04:42;14.80;99.90
57753;DHT22;43583;53.132;6.574;2022-09-24T13:06:49;14.90;99.90
57753;DHT22;43583;53.132;6.574;2022-09-24T13:09:38;14.90;99.90
57753;DHT22;43583;53.132;6.574;2022-09-24T13:14:40;14.80;99.90
57753;DHT22;43583;53.132;6.574;2022-09-24T13:17:06;14.90;99.90
57753;DHT22;43583;53.132;6.574;2022-09-24T13:19:39;14.80;99.90
57753;DHT22;43583;53.132;6.574;2022-09-24T13:22:16;14.80;99.90
57753;DHT22;43583;53.132;6.574;2022-09-24T13:24:49;14.70;99.90
57753;DHT22;43583;53.132;6.574;2022-09-24T13:27:23;14.70;99.90
57753;DHT22;43583;53.132;6.574;2022-09-24T13:30:04;14.70;99.90
57753;DHT22;43583;53.132;6.574;2022-09-24T13:32:35;14.70;99.90
57753;DHT22;43583;53.132;6.574;2022-09-24T13:35:15;14.70;99.90
57753;DHT22;43583;53.132;6.574;2022-09-24T13:37:48;14.80;99.90
57753;DHT22;43583;53.132;6.574;2022-09-24T13:40:18;14.80;99.90
57753;DHT22;43583;53.132;6.574;2022-09-24T13:42:55;14.90;99.90
57753;DHT22;43583;53.132;6.574;2022-09-24T13:45:23;14.90;99.90
57753;DHT22;43583;53.132;6.574;2022-09-24T13:48:04;14.90;99.90
57753;DHT22;43583;53.132;6.574;2022-09-24T13:50:36;14.90;99.90
57753;DHT22;43583;53.132;6.574;2022-09-24T13:53:05;14.80;99.90
57753;DHT22;43583;53.132;6.574;2022-09-24T13:55:37;14.80;99.90
57753;DHT22;43583;53.132;6.574;2022-09-24T13:58:04;14.80;99.90
57753;DHT22;43583;53.132;6.574;2022-09-24T14:00:30;14.70;99.90
57753;DHT22;43583;53.132;6.574;2022-09-24T14:05:26;14.60;99.90
57753;DHT22;43583;53.132;6.574;2022-09-24T14:10:30;14.70;99.90
57753;DHT22;43583;53.132;6.574;2022-09-24T14:13:01;14.60;99.90
57753;DHT22;43583;53.132;6.574;2022-09-24T14:15:30;14.60;99.90
57753;DHT22;43583;53.132;6.574;2022-09-24T14:17:59;14.60;99.90
57753;DHT22;43583;53.132;6.574;2022-09-24T14:20:32;14.60;99.90
57753;DHT22;43583;53.132;6.574;2022-09-24T14:22:59;14.50;99.90
57753;DHT22;43583;53.132;6.574;2022-09-24T14:25:28;14.50;99.90
57753;DHT22;43583;53.132;6.574;2022-09-24T14:27:54;14.40;99.90
57753;DHT22;43583;53.132;6.574;2022-09-24T14:30:24;14.30;99.90
57753;DHT22;43583;53.132;6.574;2022-09-24T14:33:04;14.20;99.90
57753;DHT22;43583;53.132;6.574;2022-09-24T14:35:38;14.10;99.90
57753;DHT22;43583;53.132;6.574;2022-09-24T14:38:23;14.10;99.90
57753;DHT22;43583;53.132;6.574;2022-09-24T14:41:01;14.00;99.90
57753;DHT22;43583;53.132;6.574;2022-09-24T14:43:35;14.00;99.90
57753;DHT22;43583;53.132;6.574;2022-09-24T14:46:11;13.90;99.90
57753;DHT22;43583;53.132;6.574;2022-09-24T14:48:38;13.90;99.90
57753;DHT22;43583;53.132;6.574;2022-09-24T14:51:24;13.90;99.90
57753;DHT22;43583;53.132;6.574;2022-09-24T14:54:36;13.90;99.90
57753;DHT22;43583;53.132;6.574;2022-09-24T14:57:23;13.90;99.90
57753;DHT22;43583;53.132;6.574;2022-09-24T14:59:49;13.90;99.90
57753;DHT22;43583;53.132;6.574;2022-09-24T15:02:32;13.80;99.90
57753;DHT22;43583;53.132;6.574;2022-09-24T15:05:04;13.80;99.90
57753;DHT22;43583;53.132;6.574;2022-09-24T15:07:32;13.70;99.90
57753;DHT22;43583;53.132;6.574;2022-09-24T15:09:59;13.60;99.90
57753;DHT22;43583;53.132;6.574;2022-09-24T15:12:28;13.50;99.90
57753;DHT22;43583;53.132;6.574;2022-09-24T15:15:00;13.40;99.90
57753;DHT22;43583;53.132;6.574;2022-09-24T15:17:33;13.30;99.90
57753;DHT22;43583;53.132;6.574;2022-09-24T15:20:00;13.20;99.90
57753;DHT22;43583;53.132;6.574;2022-09-24T15:22:27;13.20;99.90
57753;DHT22;43583;53.132;6.574;2022-09-24T15:24:55;13.10;99.90
57753;DHT22;43583;53.132;6.574;2022-09-24T15:27:21;13.20;99.90
57753;DHT22;43583;53.132;6.574;2022-09-24T15:29:48;13.20;99.90
57753;DHT22;43583;53.132;6.574;2022-09-24T15:32:18;13.20;99.90
57753;DHT22;43583;53.132;6.574;2022-09-24T15:34:45;13.20;99.90
57753;DHT22;43583;53.132;6.574;2022-09-24T15:37:12;13.30;99.90
57753;DHT22;43583;53.132;6.574;2022-09-24T15:39:39;13.30;99.90
57753;DHT22;43583;53.132;6.574;2022-09-24T15:42:10;13.40;99.90
57753;DHT22;43583;53.132;6.574;2022-09-24T15:44:36;13.40;99.90
57753;DHT22;43583;53.132;6.574;2022-09-24T15:47:01;13.40;99.90
57753;DHT22;43583;53.132;6.574;2022-09-24T15:49:27;13.40;99.90
57753;DHT22;43583;53.132;6.574;2022-09-24T15:51:56;13.40;99.90
57753;DHT22;43583;53.132;6.574;2022-09-24T15:54:23;13.40;99.90
57753;DHT22;43583;53.132;6.574;2022-09-24T15:56:49;13.50;99.90
57753;DHT22;43583;53.132;6.574;2022-09-24T15:59:19;13.50;99.90
57753;DHT22;43583;53.132;6.574;2022-09-24T16:01:47;13.50;99.90
57753;DHT22;43583;53.132;6.574;2022-09-24T16:04:13;13.50;99.90
57753;DHT22;43583;53.132;6.574;2022-09-24T16:06:39;13.50;99.90
57753;DHT22;43583;53.132;6.574;2022-09-24T16:09:05;13.50;99.90
57753;DHT22;43583;53.132;6.574;2022-09-24T16:11:31;13.50;99.90
57753;DHT22;43583;53.132;6.574;2022-09-24T16:13:56;13.60;99.90
57753;DHT22;43583;53.132;6.574;2022-09-24T16:16:22;13.60;99.90
57753;DHT22;43583;53.132;6.574;2022-09-24T16:18:47;13.60;99.90
57753;DHT22;43583;53.132;6.574;2022-09-24T16:21:13;13.60;99.90
57753;DHT22;43583;53.132;6.574;2022-09-24T16:23:39;13.60;99.90
57753;DHT22;43583;53.132;6.574;2022-09-24T16:26:04;13.60;99.90
57753;DHT22;43583;53.132;6.574;2022-09-24T16:28:30;13.70;99.90
57753;DHT22;43583;53.132;6.574;2022-09-24T16:30:56;13.70;99.90
57753;DHT22;43583;53.132;6.574;2022-09-24T16:33:22;13.70;99.90
57753;DHT22;43583;53.132;6.574;2022-09-24T16:35:48;13.70;99.90
57753;DHT22;43583;53.132;6.574;2022-09-24T16:38:13;13.70;99.90
57753;DHT22;43583;53.132;6.574;2022-09-24T16:40:39;13.80;99.90
57753;DHT22;43583;53.132;6.574;2022-09-24T16:43:05;13.80;99.90
57753;DHT22;43583;53.132;6.574;2022-09-24T16:45:31;13.80;99.90
57753;DHT22;43583;53.132;6.574;2022-09-24T16:47:57;13.80;99.90
57753;DHT22;43583;53.132;6.574;2022-09-24T16:50:23;13.80;99.90
57753;DHT22;43583;53.132;6.574;2022-09-24T16:52:49;13.80;99.90
57753;DHT22;43583;53.132;6.574;2022-09-24T16:55:16;13.90;99.90
57753;DHT22;43583;53.132;6.574;2022-09-24T16:57:42;13.80;99.90
57753;DHT22;43583;53.132;6.574;2022-09-24T17:00:09;13.90;99.90
57753;DHT22;43583;53.132;6.574;2022-09-24T17:02:35;13.90;99.90
57753;DHT22;43583;53.132;6.574;2022-09-24T17:05:01;13.90;99.90